Time;durP1;ratioP1;P1;durP2;ratioP2;P2;SDS_P1;SDS_P2;PMS_P1;PMS_P2;Temp;Humidity;BMP_temperature;BMP_pressure;BME280_temperature;BME280_humidity;BME280_pressure;Samples;Min_cycle;Max_cycle;Signal;HPM_P1;HPM_P2
2023/05/14 00:00:00;;;;;;;7.10;6.45;;;11.40;99.90;;;12.23;100.00;97903.69;5114387;28;20220;-64
2023/05/14 00:02:33;;;;;;;6.70;6.25;;;11.40;99.90;;;12.22;100.00;97907.06;5111121;28;20291;-65
2023/05/14 00:05:07;;;;;;;7.75;7.15;;;11.40;99.90;;;12.24;100.00;97902.88;5106928;28;20585;-63
2023/05/14 00:07:40;;;;;;;8.02;7.43;;;11.40;99.90;;;12.23;100.00;97901.16;5111902;28;20292;-63
2023/05/14 00:10:13;;;;;;;7.72;7.03;;;11.40;99.90;;;12.23;100.00;97896.03;5112419;28;20233;-63
2023/05/14 00:12:46;;;;;;;7.50;6.80;;;11.40;99.90;;;12.21;100.00;97883.09;5106047;28;20233;-64
2023/05/14 00:15:21;;;;;;;7.75;7.18;;;11.40;99.90;;;12.22;100.00;97884.88;5109776;28;20204;-64
2023/05/14 00:17:54;;;;;;;7.47;6.97;;;11.40;99.90;;;12.22;100.00;97890.00;5117642;28;20200;-63
2023/05/14 00:20:27;;;;;;;7.47;6.97;;;11.40;99.90;;;12.24;100.00;97888.38;5112241;28;20251;-63
2023/05/14 00:23:00;;;;;;;7.45;6.85;;;11.40;99.90;;;12.24;100.00;97895.19;5105130;28;20197;-63
2023/05/14 00:25:33;;;;;;;8.13;7.53;;;11.40;99.90;;;12.25;100.00;97884.16;5116633;28;20580;-63
2023/05/14 00:28:06;;;;;;;7.70;7.10;;;11.40;99.90;;;12.25;100.00;97879.03;5112465;28;20200;-64
2023/05/14 00:30:40;;;;;;;8.43;7.68;;;11.40;99.90;;;12.24;100.00;97875.56;5114149;28;20229;-64
2023/05/14 00:33:13;;;;;;;8.57;7.88;;;11.40;99.90;;;12.25;100.00;97879.03;5105954;29;20228;-64
2023/05/14 00:35:46;;;;;;;8.05;7.35;;;11.40;99.90;;;12.24;100.00;97874.69;5111505;28;20220;-64
2023/05/14 00:38:19;;;;;;;7.65;7.15;;;11.40;99.90;;;12.28;100.00;97862.13;5113130;28;20205;-63
2023/05/14 00:40:52;;;;;;;7.75;7.15;;;11.40;99.90;;;12.20;100.00;97865.13;5111422;28;20720;-64
2023/05/14 00:43:25;;;;;;;7.72;7.13;;;11.30;99.90;;;12.14;100.00;97869.13;5104872;28;20201;-64
2023/05/14 00:46:00;;;;;;;7.53;6.93;;;11.30;99.90;;;12.12;100.00;97863.03;5115088;28;20248;-64
2023/05/14 00:48:33;;;;;;;8.45;7.68;;;11.30;99.90;;;12.11;100.00;97863.84;5106362;29;20207;-64
2023/05/14 00:51:07;;;;;;;7.85;7.18;;;11.30;99.90;;;12.12;100.00;97867.28;5108558;28;20221;-63
2023/05/14 00:53:41;;;;;;;7.97;7.38;;;11.30;99.90;;;12.12;100.00;97872.41;5114385;28;20232;-65
2023/05/14 00:56:15;;;;;;;7.70;7.15;;;11.30;99.90;;;12.10;100.00;97869.78;5105832;28;20641;-63
2023/05/14 00:58:48;;;;;;;7.65;7.15;;;11.30;99.90;;;12.07;100.00;97877.28;5109525;28;20200;-63
2023/05/14 01:01:23;;;;;;;8.00;7.32;;;11.30;99.90;;;12.07;100.00;97869.59;5110446;28;20259;-64
2023/05/14 01:03:56;;;;;;;7.50;7.00;;;11.30;99.90;;;12.04;100.00;97873.69;5105089;28;20204;-63
2023/05/14 01:06:40;;;;;;;8.55;7.85;;;11.20;99.90;;;12.03;100.00;97859.13;5110753;28;20260;-63
2023/05/14 01:09:24;;;;;;;8.55;7.85;;;11.20;99.90;;;12.00;100.00;97857.28;5112639;28;20307;-63
2023/05/14 01:12:03;;;;;;;7.45;6.85;;;11.20;99.90;;;11.99;100.00;97860.66;5110386;28;20205;-62
2023/05/14 01:14:43;;;;;;;7.75;7.05;;;11.20;99.90;;;12.00;100.00;97853.84;5106400;28;20673;-64
2023/05/14 01:17:21;;;;;;;7.05;6.55;;;11.10;99.90;;;11.96;100.00;97850.25;5106908;28;20566;-63
2023/05/14 01:19:56;;;;;;;8.25;7.65;;;11.10;99.90;;;11.94;100.00;97851.84;5108793;28;20231;-63
2023/05/14 01:22:30;;;;;;;7.90;7.30;;;11.10;99.90;;;11.88;100.00;97856.66;5111588;28;20200;-63
2023/05/14 01:25:04;;;;;;;8.10;7.50;;;11.10;99.90;;;11.85;100.00;97856.47;5107445;28;20767;-62
2023/05/14 01:27:48;;;;;;;7.88;7.30;;;11.10;99.90;;;11.89;100.00;97858.41;5113899;28;20215;-64
2023/05/14 01:30:29;;;;;;;8.23;7.63;;;11.10;99.90;;;11.88;100.00;97866.91;5113689;28;21830;-63
2023/05/14 01:33:08;;;;;;;8.20;7.45;;;11.10;99.90;;;11.90;100.00;97860.16;5105950;28;20229;-64
2023/05/14 01:35:41;;;;;;;7.55;6.95;;;11.10;99.90;;;11.91;100.00;97859.38;5112128;28;20205;-63
2023/05/14 01:38:19;;;;;;;7.35;6.78;;;11.10;99.90;;;11.92;100.00;97853.44;5110374;28;20205;-63
2023/05/14 01:40:53;;;;;;;7.38;6.88;;;11.10;99.90;;;11.92;100.00;97856.00;5111445;28;20225;-64
2023/05/14 01:43:27;;;;;;;6.95;6.45;;;11.10;99.90;;;11.89;100.00;97866.09;5105742;28;20255;-63
2023/05/14 01:46:00;;;;;;;7.40;6.90;;;11.00;99.90;;;11.87;100.00;97865.13;5115178;28;20228;-64
2023/05/14 01:48:33;;;;;;;7.20;6.63;;;11.10;99.90;;;11.91;100.00;97861.94;5115121;28;20201;-63
2023/05/14 01:51:06;;;;;;;7.38;6.75;;;11.10;99.90;;;11.90;100.00;97870.41;5112982;28;20228;-64
2023/05/14 01:53:40;;;;;;;7.45;6.85;;;11.10;99.90;;;11.89;100.00;97860.97;5116884;28;20213;-62
2023/05/14 01:56:13;;;;;;;7.38;6.85;;;11.10;99.90;;;11.89;100.00;97859.28;5110391;28;20220;-63
2023/05/14 01:58:46;;;;;;;7.13;6.63;;;11.00;99.90;;;11.89;100.00;97860.97;5119226;28;20197;-63
2023/05/14 02:01:19;;;;;;;7.53;6.95;;;11.00;99.90;;;11.88;100.00;97856.66;5110974;28;20288;-63
2023/05/14 02:03:52;;;;;;;7.38;6.78;;;11.00;99.90;;;11.83;100.00;97850.38;5110078;28;20197;-63
2023/05/14 02:06:25;;;;;;;7.50;6.80;;;11.00;99.90;;;11.78;100.00;97851.81;5115292;28;20205;-63
2023/05/14 02:09:00;;;;;;;7.03;6.53;;;11.00;99.90;;;11.77;100.00;97850.06;5111684;28;20234;-63
2023/05/14 02:11:33;;;;;;;7.53;6.95;;;11.00;99.90;;;11.76;100.00;97849.19;5109460;28;20216;-64
2023/05/14 02:14:06;;;;;;;7.72;6.95;;;10.90;99.90;;;11.75;100.00;97851.66;5107955;28;20229;-63
2023/05/14 02:16:39;;;;;;;7.88;7.28;;;10.90;99.90;;;11.71;100.00;97856.63;5112624;28;20568;-62
2023/05/14 02:19:12;;;;;;;7.72;7.13;;;10.90;99.90;;;11.70;100.00;97856.53;5106501;28;20229;-62
2023/05/14 02:21:45;;;;;;;6.82;6.32;;;10.90;99.90;;;11.71;100.00;97853.19;5115887;28;20229;-63
2023/05/14 02:24:20;;;;;;;7.25;6.75;;;10.90;99.90;;;11.68;100.00;97850.47;5110216;28;20209;-63
2023/05/14 02:26:53;;;;;;;7.28;6.72;;;10.90;99.90;;;11.67;100.00;97852.13;5115716;28;20207;-64
2023/05/14 02:29:26;;;;;;;7.30;6.80;;;10.90;99.90;;;11.68;100.00;97847.91;5114845;29;20230;-63
2023/05/14 02:31:59;;;;;;;7.38;6.88;;;10.90;99.90;;;11.71;100.00;97854.06;5112364;28;20296;-63
2023/05/14 02:34:33;;;;;;;7.25;6.65;;;10.90;99.90;;;11.71;100.00;97854.06;5112204;28;20229;-62
2023/05/14 02:37:06;;;;;;;6.68;6.18;;;10.90;99.90;;;11.72;100.00;97860.94;5115854;29;20666;-61
2023/05/14 02:39:40;;;;;;;6.93;6.45;;;10.90;99.90;;;11.72;100.00;97849.81;5108109;28;20600;-64
2023/05/14 02:42:13;;;;;;;7.82;7.32;;;10.90;99.90;;;11.70;100.00;97849.75;5117159;29;20215;-61
2023/05/14 02:44:46;;;;;;;7.60;6.85;;;10.90;99.90;;;11.71;100.00;97846.38;5118322;29;20204;-63
2023/05/14 02:47:19;;;;;;;7.38;6.72;;;10.80;99.90;;;11.69;100.00;97855.66;5106389;29;20205;-64
2023/05/14 02:49:52;;;;;;;7.90;7.22;;;10.90;99.90;;;11.69;100.00;97849.66;5106318;28;20249;-63
2023/05/14 02:52:25;;;;;;;7.50;7.00;;;10.90;99.90;;;11.67;100.00;97851.25;5117104;28;20212;-63
2023/05/14 02:54:59;;;;;;;6.35;5.95;;;10.90;99.90;;;11.69;100.00;97847.09;5114566;29;20234;-63
2023/05/14 02:57:32;;;;;;;7.95;7.28;;;10.90;99.90;;;11.67;100.00;97852.13;5117359;28;20208;-64
2023/05/14 03:00:07;;;;;;;7.07;6.57;;;10.90;99.90;;;11.65;100.00;97851.19;5115955;29;20755;-62
2023/05/14 03:02:42;;;;;;;7.03;6.43;;;10.90;99.90;;;11.68;100.00;97850.47;5108642;28;20231;-63
2023/05/14 03:05:15;;;;;;;7.22;6.63;;;10.90;99.90;;;11.70;100.00;97852.31;5107600;28;20215;-63
2023/05/14 03:07:50;;;;;;;8.13;7.43;;;10.90;99.90;;;11.73;100.00;97856.69;5107323;28;20221;-64
2023/05/14 03:10:24;;;;;;;7.80;7.15;;;11.00;99.90;;;11.74;100.00;97858.47;5110263;28;20243;-63
2023/05/14 03:12:57;;;;;;;7.43;6.78;;;11.00;99.90;;;11.76;100.00;97864.56;5108996;28;20812;-64
2023/05/14 03:15:30;;;;;;;7.40;6.80;;;11.00;99.90;;;11.79;100.00;97857.03;5115400;28;20215;-63
2023/05/14 03:18:03;;;;;;;7.38;6.85;;;11.00;99.90;;;11.77;100.00;97852.63;5107154;28;20216;-62
2023/05/14 03:20:36;;;;;;;7.90;7.30;;;11.00;99.90;;;11.79;100.00;97856.13;5111253;28;20221;-62
2023/05/14 03:23:09;;;;;;;7.13;6.63;;;11.00;99.90;;;11.82;100.00;97856.31;5113290;28;20215;-64
2023/05/14 03:25:44;;;;;;;8.32;7.60;;;11.00;99.90;;;11.80;100.00;97853.66;5110938;28;20244;-65
2023/05/14 03:28:17;;;;;;;8.35;7.65;;;11.00;99.90;;;11.72;100.00;97850.69;5111223;28;20205;-63
2023/05/14 03:30:50;;;;;;;7.28;6.70;;;10.90;99.90;;;11.66;100.00;97855.50;5114252;28;20233;-64
2023/05/14 03:33:23;;;;;;;6.63;6.13;;;10.80;99.90;;;11.63;100.00;97855.34;5105562;28;20243;-63
2023/05/14 03:35:56;;;;;;;7.32;6.72;;;10.80;99.90;;;11.64;100.00;97857.09;5109653;29;20201;-63
2023/05/14 03:38:29;;;;;;;7.72;7.03;;;10.80;99.90;;;11.64;100.00;97851.97;5106582;28;20216;-64
2023/05/14 03:41:04;;;;;;;7.32;6.80;;;10.90;99.90;;;11.66;100.00;97849.50;5110304;28;20225;-63
2023/05/14 03:43:36;;;;;;;7.82;7.22;;;10.90;99.90;;;11.69;100.00;97855.66;5110980;28;20216;-62
2023/05/14 03:46:10;;;;;;;7.53;6.88;;;10.90;99.90;;;11.72;100.00;97855.81;5106613;28;20210;-64
2023/05/14 03:48:42;;;;;;;7.30;6.70;;;10.90;99.90;;;11.76;100.00;97855.97;5111617;28;20208;-63
2023/05/14 03:51:16;;;;;;;8.40;7.80;;;10.90;99.90;;;11.77;100.00;97853.50;5110218;28;20200;-63
2023/05/14 03:53:49;;;;;;;7.45;6.85;;;11.00;99.90;;;11.79;100.00;97851.00;5109342;28;20609;-63
2023/05/14 03:56:23;;;;;;;7.85;7.25;;;11.00;99.90;;;11.77;100.00;97850.94;5105801;28;20223;-63
2023/05/14 03:58:56;;;;;;;7.97;7.28;;;11.00;99.90;;;11.77;100.00;97842.38;5116365;28;20624;-64
2023/05/14 04:01:29;;;;;;;8.52;7.72;;;11.00;99.90;;;11.78;100.00;97849.25;5114496;28;20212;-63
2023/05/14 04:04:02;;;;;;;7.63;7.10;;;11.00;99.90;;;11.75;100.00;97849.97;5112642;28;20205;-63
2023/05/14 04:06:36;;;;;;;8.45;7.65;;;10.90;99.90;;;11.76;100.00;97845.72;5106393;28;20286;-62
2023/05/14 04:09:10;;;;;;;8.43;7.75;;;11.00;99.90;;;11.80;100.00;97842.53;5109401;28;20216;-63
2023/05/14 04:11:45;;;;;;;7.63;6.97;;;11.00;99.90;;;11.81;100.00;97851.97;5109851;28;20695;-64
2023/05/14 04:14:18;;;;;;;8.10;7.40;;;11.00;99.90;;;11.90;100.00;97848.25;5116385;28;20224;-64
2023/05/14 04:16:51;;;;;;;8.55;7.75;;;11.00;99.90;;;11.90;100.00;97844.78;5110759;28;20247;-63
2023/05/14 04:19:24;;;;;;;8.15;7.55;;;11.00;99.90;;;11.86;100.00;97842.88;5106080;28;20320;-63
2023/05/14 04:21:57;;;;;;;7.90;7.20;;;11.00;99.90;;;11.88;100.00;97846.41;5111985;28;20206;-64
2023/05/14 04:24:29;;;;;;;7.80;7.20;;;11.00;99.90;;;11.86;100.00;97840.31;5114483;28;20203;-63
2023/05/14 04:27:05;;;;;;;8.43;7.78;;;11.00;99.90;;;11.88;100.00;97826.81;5110656;28;20205;-63
2023/05/14 04:29:38;;;;;;;7.97;7.38;;;11.10;99.90;;;11.86;100.00;97835.22;5114646;28;20224;-63
2023/05/14 04:32:11;;;;;;;8.48;7.78;;;11.00;99.90;;;11.87;100.00;97836.94;5111900;28;20209;-61
2023/05/14 04:34:45;;;;;;;9.13;8.43;;;11.10;99.90;;;11.87;100.00;97837.81;5106072;28;20299;-63
2023/05/14 04:37:18;;;;;;;8.63;7.82;;;11.10;99.90;;;11.89;100.00;97833.69;5115984;28;20586;-63
2023/05/14 04:39:51;;;;;;;8.73;7.93;;;11.10;99.90;;;11.95;100.00;97839.09;5109142;28;20227;-63
2023/05/14 04:42:26;;;;;;;8.90;8.18;;;11.10;99.90;;;11.99;100.00;97845.28;5111761;28;20944;-64
2023/05/14 04:44:59;;;;;;;8.90;8.20;;;11.10;99.90;;;11.93;100.00;97838.16;5113909;28;20202;-63
2023/05/14 04:47:32;;;;;;;8.95;8.15;;;11.10;99.90;;;11.92;100.00;97838.06;5106858;28;20213;-62
2023/05/14 04:50:08;;;;;;;8.38;7.68;;;11.10;99.90;;;11.92;100.00;97838.06;5112770;28;20224;-63
2023/05/14 04:52:41;;;;;;;8.77;7.97;;;11.10;99.90;;;11.89;100.00;97832.81;5108745;28;20677;-63
2023/05/14 04:55:14;;;;;;;9.25;8.50;;;11.10;99.90;;;11.93;100.00;97843.28;5110929;29;20232;-63
2023/05/14 04:57:48;;;;;;;9.30;8.55;;;11.10;99.90;;;11.90;100.00;97839.66;5107804;28;20255;-63
2023/05/14 05:00:22;;;;;;;10.82;10.02;;;11.10;99.90;;;11.88;100.00;97846.41;5105405;28;20227;-62
2023/05/14 05:02:55;;;;;;;9.57;8.77;;;11.00;99.90;;;11.87;100.00;97839.50;5104563;28;20296;-63
2023/05/14 05:05:28;;;;;;;12.15;11.15;;;11.00;99.90;;;11.85;100.00;97844.56;5108314;28;20296;-67
2023/05/14 05:08:01;;;;;;;11.63;10.63;;;11.00;99.90;;;11.81;100.00;97839.16;5106533;28;20542;-67
2023/05/14 05:10:34;;;;;;;11.52;10.52;;;11.00;99.90;;;11.82;100.00;97840.94;5105097;28;20255;-67
2023/05/14 05:13:09;;;;;;;11.30;10.25;;;11.00;99.90;;;12.02;100.00;97845.44;5115455;28;20204;-66
2023/05/14 05:15:42;;;;;;;11.77;10.73;;;11.10;99.90;;;11.91;100.00;97842.31;5112739;28;20280;-67
2023/05/14 05:18:15;;;;;;;11.43;10.52;;;11.00;99.90;;;11.80;100.00;97834.84;5118751;28;20232;-67
2023/05/14 05:20:48;;;;;;;12.27;11.27;;;11.00;99.90;;;11.84;100.00;97839.31;5111070;28;20228;-66
2023/05/14 05:23:21;;;;;;;13.20;12.00;;;11.00;99.90;;;11.89;100.00;97840.47;5111088;28;20661;-68
2023/05/14 05:25:54;;;;;;;14.75;13.45;;;11.00;99.90;;;11.90;100.00;97840.56;5120408;28;20201;-67
2023/05/14 05:28:28;;;;;;;17.25;15.65;;;11.00;99.90;;;11.95;100.00;97843.34;5118133;28;20223;-66
2023/05/14 05:31:01;;;;;;;40.05;36.05;;;11.10;99.90;;;11.88;100.00;97833.63;5113460;28;20681;-68
2023/05/14 05:33:35;;;;;;;39.15;34.15;;;11.10;99.90;;;11.98;100.00;97837.50;5143319;28;20253;-66
2023/05/14 05:36:09;;;;;;;14.13;12.75;;;11.10;99.90;;;11.93;100.00;97839.81;5216038;28;59455;-67
2023/05/14 05:38:42;;;;;;;13.18;11.98;;;11.10;99.90;;;11.98;100.00;97838.38;5217769;28;20219;-67
2023/05/14 05:42:33;;;;;;;12.88;11.68;;;11.20;99.90;;;12.07;100.00;97830.28;5234401;27;55668;-67
2023/05/14 05:45:08;;;;;;;14.02;12.75;;;11.20;99.90;;;12.12;100.00;97836.53;5209269;28;20400;-68
2023/05/14 05:47:41;;;;;;;14.95;13.65;;;11.30;99.90;;;12.22;100.00;97823.38;5169151;28;20224;-65
2023/05/14 05:50:14;;;;;;;19.05;17.60;;;11.30;99.90;;;12.32;100.00;97827.28;5194223;28;20229;-65
2023/05/14 05:52:47;;;;;;;18.30;16.80;;;11.40;99.90;;;12.35;100.00;97824.88;5194070;28;20323;-65
2023/05/14 05:55:20;;;;;;;14.07;12.88;;;11.40;99.90;;;12.52;99.88;97839.38;5170922;28;20774;-66
2023/05/14 05:59:45;;;;;;;12.80;11.57;;;11.50;99.90;;;12.48;100.00;97828.94;5218656;27;20959;-65
2023/05/14 06:04:33;;;;;;;14.38;12.98;;;11.60;99.90;;;12.55;100.00;97824.16;5193662;27;56280;-65
2023/05/14 06:07:07;;;;;;;13.60;12.40;;;11.70;99.90;;;12.58;100.00;97834.56;5196713;28;57352;-65
2023/05/14 06:09:40;;;;;;;15.07;13.57;;;11.80;99.90;;;12.69;100.00;97831.66;5205463;28;56997;-65
2023/05/14 06:13:34;;;;;;;30.63;28.33;;;11.90;99.90;;;12.74;99.66;97835.31;5225281;27;20807;-65
2023/05/14 06:16:08;;;;;;;21.50;19.80;;;11.90;99.90;;;12.83;99.34;97838.31;5225530;28;20249;-66
2023/05/14 06:18:42;;;;;;;13.95;12.65;;;11.90;99.90;;;12.94;98.89;97826.00;5226532;28;55454;-65
2023/05/14 06:21:16;;;;;;;13.52;12.30;;;12.00;99.90;;;13.02;98.11;97828.13;5233762;28;20207;-65
2023/05/14 06:23:50;;;;;;;12.77;11.68;;;12.10;99.90;;;13.13;98.42;97825.16;5227469;28;20594;-65
2023/05/14 06:27:51;;;;;;;12.88;11.75;;;12.10;99.90;;;13.18;97.57;97823.69;5203812;28;20841;-68
2023/05/14 06:31:12;;;;;;;11.70;10.75;;;12.20;99.90;;;13.40;95.65;97821.34;5191673;27;20814;-66
2023/05/14 06:35:24;;;;;;;12.27;11.18;;;12.30;99.90;;;13.42;94.61;97826.53;5207969;27;20818;-65
2023/05/14 06:37:57;;;;;;;12.63;11.55;;;12.40;99.90;;;13.45;94.29;97824.13;5214777;28;20201;-64
2023/05/14 06:40:31;;;;;;;13.02;11.82;;;12.40;99.90;;;13.43;94.71;97828.31;5210422;28;57382;-66
2023/05/14 06:43:16;;;;;;;13.75;12.57;;;12.40;99.90;;;13.53;94.29;97825.31;5182365;27;20943;-68
2023/05/14 06:45:50;;;;;;;12.73;11.68;;;12.40;99.90;;;13.60;93.40;97829.06;5169137;28;20260;-65
2023/05/14 06:48:26;;;;;;;11.65;10.73;;;12.50;99.90;;;13.65;93.51;97830.13;5162005;27;59233;-65
2023/05/14 06:52:16;;;;;;;14.43;13.23;;;12.50;99.90;;;13.73;92.20;97821.06;5212145;27;25063;-64
2023/05/14 06:54:49;;;;;;;13.15;12.15;;;12.70;99.90;;;13.71;93.23;97820.16;5190015;28;20225;-64
2023/05/14 06:57:22;;;;;;;12.85;11.77;;;12.60;99.90;;;13.67;93.55;97819.09;5193920;28;20230;-65
2023/05/14 06:59:56;;;;;;;12.40;11.30;;;12.70;99.90;;;13.71;94.28;97827.84;5182484;28;20234;-65
2023/05/14 07:02:29;;;;;;;12.95;11.88;;;12.70;99.90;;;13.96;92.56;97820.41;5195040;28;20233;-64
2023/05/14 07:05:02;;;;;;;14.00;12.75;;;12.90;99.90;;;14.01;91.36;97817.13;5190991;28;20230;-64
2023/05/14 07:07:36;;;;;;;13.45;12.30;;;13.00;99.90;;;14.02;93.03;97818.88;5190472;28;20212;-63
2023/05/14 07:10:10;;;;;;;12.23;11.23;;;12.90;99.90;;;14.06;92.73;97820.78;5187411;28;20221;-64
2023/05/14 07:12:44;;;;;;;12.43;11.32;;;13.00;99.90;;;14.19;92.32;97818.81;5193650;28;20267;-65
2023/05/14 07:15:17;;;;;;;12.85;11.60;;;13.10;99.90;;;14.30;91.29;97816.66;5190328;28;20600;-64
2023/05/14 07:17:50;;;;;;;12.77;11.57;;;13.10;99.90;;;14.30;90.28;97816.66;5192211;28;20240;-64
2023/05/14 07:20:23;;;;;;;12.82;11.73;;;13.20;99.90;;;14.38;89.77;97817.00;5189763;28;20755;-64
2023/05/14 07:22:58;;;;;;;11.68;10.68;;;13.30;99.90;;;14.49;87.93;97828.59;5187457;28;20229;-65
2023/05/14 07:25:32;;;;;;;11.50;10.60;;;13.40;99.90;;;14.63;87.29;97831.78;5190010;28;20275;-64
2023/05/14 07:28:05;;;;;;;11.10;10.20;;;13.50;99.90;;;14.63;87.75;97824.06;5189979;28;20232;-64
2023/05/14 07:30:38;;;;;;;12.48;11.40;;;13.50;99.90;;;14.69;88.08;97826.00;5187948;28;20341;-64
2023/05/14 07:33:11;;;;;;;11.68;10.68;;;13.60;99.90;;;14.70;88.82;97826.03;5194159;28;20227;-64
2023/05/14 07:35:44;;;;;;;12.07;11.15;;;13.60;99.90;;;14.80;88.48;97819.59;5190964;28;20239;-63
2023/05/14 07:38:19;;;;;;;11.85;10.93;;;13.70;99.90;;;14.92;87.61;97820.06;5193545;28;20242;-64
2023/05/14 07:40:53;;;;;;;11.30;10.35;;;13.80;99.90;;;14.98;87.83;97824.56;5190692;28;20253;-63
2023/05/14 07:43:26;;;;;;;12.80;11.70;;;13.80;99.90;;;15.15;86.90;97812.34;5194655;28;20709;-64
2023/05/14 07:45:59;;;;;;;12.25;11.15;;;14.00;99.90;;;15.24;88.52;97810.13;5192925;28;20229;-64
2023/05/14 07:48:32;;;;;;;12.20;11.20;;;14.10;99.90;;;15.47;88.32;97811.00;5174482;28;57244;-64
2023/05/14 07:51:05;;;;;;;11.38;10.38;;;14.30;99.90;;;15.86;83.68;97806.44;5169004;28;20730;-63
2023/05/14 07:53:40;;;;;;;12.45;11.35;;;14.60;99.90;;;15.85;83.19;97809.84;5167850;28;20244;-63
2023/05/14 07:56:13;;;;;;;11.55;10.40;;;14.60;99.90;;;16.18;82.93;97798.94;5156724;28;20222;-65
2023/05/14 07:58:46;;;;;;;10.73;9.82;;;14.90;99.90;;;16.71;81.95;97801.53;5162289;28;20218;-64
2023/05/14 08:01:19;;;;;;;10.73;9.93;;;15.40;99.90;;;17.43;80.45;97807.25;5177973;28;20214;-64
2023/05/14 08:03:52;;;;;;;11.48;10.43;;;16.10;99.90;;;18.04;75.32;97796.88;5160603;28;20324;-64
2023/05/14 08:06:26;;;;;;;10.05;9.25;;;16.50;99.90;;;18.25;74.80;97792.25;5158396;28;20234;-63
2023/05/14 08:09:00;;;;;;;10.80;9.90;;;16.70;99.90;;;18.35;71.55;97791.66;5160213;28;20330;-65
2023/05/14 08:11:33;;;;;;;9.65;8.95;;;16.90;99.90;;;18.35;69.36;97788.22;5159442;28;20230;-64
2023/05/14 08:14:06;;;;;;;10.18;9.27;;;17.00;99.90;;;18.21;71.48;97798.19;5157733;28;20741;-65
2023/05/14 08:16:39;;;;;;;10.20;9.40;;;16.80;99.90;;;18.43;68.32;97795.31;5161574;28;20222;-64
2023/05/14 08:19:13;;;;;;;10.73;9.80;;;17.00;99.90;;;18.28;68.03;97797.50;5162989;28;20239;-65
2023/05/14 08:21:46;;;;;;;9.88;9.05;;;17.00;99.90;;;18.19;70.23;97800.72;5158635;28;20238;-65
2023/05/14 08:24:20;;;;;;;10.05;9.25;;;16.80;99.90;;;18.21;67.50;97796.47;5160203;28;20226;-65
2023/05/14 08:26:55;;;;;;;10.35;9.45;;;16.90;99.90;;;18.12;66.53;97795.38;5158408;28;20242;-63
2023/05/14 08:29:28;;;;;;;10.80;9.90;;;17.00;99.90;;;17.47;67.62;97790.97;5152511;28;20602;-64
2023/05/14 08:32:01;;;;;;;9.20;8.45;;;16.50;99.90;;;17.39;69.71;97791.59;5154890;28;20227;-62
2023/05/14 08:34:51;;;;;;;9.45;8.75;;;16.30;99.90;;;17.69;68.34;97792.47;5157883;28;20308;-64
2023/05/14 08:37:24;;;;;;;9.38;8.57;;;16.60;99.90;;;17.67;69.28;97783.78;5157787;28;20222;-64
2023/05/14 08:39:59;;;;;;;9.32;8.63;;;16.60;99.90;;;17.60;71.82;97793.91;5155526;28;20571;-64
2023/05/14 08:42:32;;;;;;;10.00;9.15;;;16.60;99.90;;;17.82;68.58;97785.94;5156884;28;20653;-63
2023/05/14 08:45:10;;;;;;;9.20;8.48;;;16.90;99.90;;;18.01;66.49;97793.38;5160291;28;20231;-65
2023/05/14 08:47:47;;;;;;;8.77;8.13;;;17.00;99.90;;;17.77;64.75;97782.34;5155415;28;20218;-64
2023/05/14 08:50:21;;;;;;;9.38;8.65;;;16.90;99.90;;;17.40;66.61;97783.00;5157667;28;20316;-64
2023/05/14 08:52:56;;;;;;;9.40;8.60;;;16.50;99.90;;;16.85;69.09;97787.38;5162403;28;20718;-64
2023/05/14 08:55:32;;;;;;;9.20;8.43;;;16.20;99.90;;;16.94;69.76;97785.09;5161535;28;20227;-64
2023/05/14 08:58:05;;;;;;;7.88;7.28;;;16.20;99.90;;;17.00;69.17;97787.88;5157687;28;20227;-64
2023/05/14 09:00:38;;;;;;;7.72;7.13;;;16.10;99.90;;;17.07;68.52;97782.06;5157951;28;20235;-64
2023/05/14 09:03:11;;;;;;;8.02;7.38;;;16.20;99.90;;;16.65;68.97;97791.88;5161761;28;20223;-64
2023/05/14 09:05:46;;;;;;;8.20;7.57;;;16.00;99.90;;;16.69;68.76;97787.72;5160880;28;20281;-64
2023/05/14 09:08:20;;;;;;;7.78;7.18;;;16.10;99.90;;;16.89;68.91;97784.09;5161258;28;20230;-64
2023/05/14 09:10:54;;;;;;;6.90;6.43;;;16.00;99.90;;;17.46;66.53;97776.31;5161468;28;20223;-63
2023/05/14 09:13:27;;;;;;;7.90;7.30;;;16.50;99.90;;;16.99;67.14;97783.50;5162604;28;20230;-63
2023/05/14 09:16:01;;;;;;;7.05;6.45;;;16.40;99.90;;;17.00;66.47;97784.41;5162002;28;20215;-64
2023/05/14 09:18:36;;;;;;;7.55;6.95;;;16.40;99.90;;;17.21;67.74;97773.84;5151858;28;20686;-64
2023/05/14 09:21:09;;;;;;;6.90;6.40;;;16.40;99.90;;;17.36;65.41;97774.28;5152035;28;20743;-64
2023/05/14 09:23:44;;;;;;;7.07;6.57;;;16.50;99.90;;;17.44;66.66;97777.97;5142806;28;20220;-65
2023/05/14 09:26:18;;;;;;;7.28;6.68;;;16.50;99.90;;;17.56;64.60;97767.09;5141740;28;20313;-64
2023/05/14 09:28:55;;;;;;;25.50;22.83;;;16.60;99.90;;;17.44;67.40;97769.34;5141943;28;20223;-63
2023/05/14 09:31:30;;;;;;;17.80;16.00;;;16.50;99.90;;;17.30;69.08;97766.34;5141680;28;20695;-65
2023/05/14 09:34:03;;;;;;;7.30;6.72;;;16.40;99.90;;;17.18;67.36;97766.88;5162080;28;20845;-66
2023/05/14 09:36:36;;;;;;;7.20;6.70;;;16.40;99.90;;;17.25;66.04;97765.34;5163068;28;20234;-63
2023/05/14 09:39:09;;;;;;;8.10;7.50;;;16.30;99.90;;;17.52;64.81;97766.16;5160130;28;20227;-64
2023/05/14 09:41:43;;;;;;;7.75;6.95;;;16.50;99.90;;;17.42;64.74;97758.94;5160747;28;20230;-63
2023/05/14 09:44:16;;;;;;;7.80;7.20;;;16.50;99.90;;;17.61;64.30;97754.31;5162968;28;20226;-64
2023/05/14 09:46:50;;;;;;;8.20;7.45;;;16.50;99.90;;;17.54;62.09;97759.31;5161049;28;20237;-64
2023/05/14 09:49:23;;;;;;;6.13;5.63;;;16.70;99.90;;;17.36;63.12;97760.50;5159551;28;20598;-63
2023/05/14 09:51:56;;;;;;;7.18;6.68;;;16.60;99.90;;;17.35;62.48;97769.97;5160751;28;20230;-64
2023/05/14 09:54:31;;;;;;;5.88;5.47;;;16.50;99.90;;;17.75;61.19;97752.97;5160197;28;20313;-64
2023/05/14 09:57:06;;;;;;;7.57;6.97;;;16.70;99.90;;;17.64;61.71;97746.66;5161451;28;20222;-64
2023/05/14 09:59:39;;;;;;;6.18;5.68;;;16.90;99.90;;;18.13;58.48;97747.97;5162063;28;20578;-64
2023/05/14 10:02:22;;;;;;;8.23;7.35;;;17.20;99.90;;;18.04;57.72;97746.03;5161898;28;20606;-63
2023/05/14 10:04:57;;;;;;;6.60;6.03;;;17.40;99.90;;;17.75;56.96;97738.34;5160280;28;20238;-64
2023/05/14 10:07:39;;;;;;;7.85;7.15;;;17.20;99.90;;;17.87;57.44;97745.56;5160586;28;20269;-64
2023/05/14 10:10:18;;;;;;;5.93;5.53;;;17.10;99.90;;;17.88;57.05;97731.81;5156973;28;20245;-63
2023/05/14 10:12:57;;;;;;;6.07;5.68;;;17.10;99.90;;;17.97;58.84;97739.81;5159662;28;20293;-64
2023/05/14 10:15:37;;;;;;;6.50;6.00;;;17.20;99.90;;;18.45;55.14;97743.56;5160831;28;20230;-63
2023/05/14 10:18:17;;;;;;;9.90;9.10;;;17.80;99.90;;;18.65;55.78;97736.28;5158036;28;20222;-64
2023/05/14 10:21:01;;;;;;;5.47;4.97;;;17.90;99.90;;;18.48;54.44;97727.25;5162110;28;20234;-64
2023/05/14 10:23:36;;;;;;;6.47;5.97;;;17.90;99.90;;;18.57;54.23;97722.28;5159760;28;20623;-64
2023/05/14 10:26:11;;;;;;;4.63;4.32;;;17.90;99.90;;;18.88;53.02;97718.72;5158841;28;20280;-65
2023/05/14 10:28:45;;;;;;;5.30;4.90;;;18.10;99.90;;;18.77;53.95;97721.09;5149563;28;20226;-64
2023/05/14 10:31:23;;;;;;;4.63;4.22;;;18.00;99.90;;;18.74;53.44;97720.13;5152385;28;20230;-64
2023/05/14 10:33:56;;;;;;;4.40;4.00;;;18.10;99.90;;;18.78;53.33;97712.47;5154050;28;20235;-64
2023/05/14 10:36:31;;;;;;;4.80;4.40;;;18.20;99.90;;;18.98;52.70;97718.09;5162612;28;20284;-64
2023/05/14 10:39:05;;;;;;;8.98;8.07;;;18.30;99.90;;;19.11;52.53;97721.78;5158513;28;20801;-65
2023/05/14 10:41:39;;;;;;;7.03;6.40;;;18.30;99.90;;;19.03;52.13;97713.88;5158522;28;20591;-64
2023/05/14 10:44:14;;;;;;;6.80;6.20;;;18.30;99.90;;;19.05;53.89;97713.91;5158979;28;20301;-64
2023/05/14 10:46:47;;;;;;;4.63;4.32;;;18.20;99.90;;;18.83;53.20;97717.75;5156063;28;20253;-64
2023/05/14 10:49:21;;;;;;;4.95;4.65;;;18.10;99.90;;;18.71;54.44;97709.66;5159930;28;20227;-63
2023/05/14 10:52:18;;;;;;;4.72;4.43;;;18.00;99.90;;;18.86;54.63;97716.09;5157227;28;20277;-63